sensor_id;sensor_type;location;lat;lon;timestamp;pressure;altitude;pressure_sealevel;temperature;humidity
6565;BME280;3316;44.118;27.258;2023-08-31T00:01:29;100256.19;;;22.40;100.00
6565;BME280;3316;44.118;27.258;2023-08-31T00:03:55;100249.50;;;22.47;100.00
6565;BME280;3316;44.118;27.258;2023-08-31T00:06:20;100247.38;;;22.52;100.00
6565;BME280;3316;44.118;27.258;2023-08-31T00:08:47;100236.75;;;22.50;100.00
6565;BME280;3316;44.118;27.258;2023-08-31T00:11:13;100229.97;;;22.45;100.00
6565;BME280;3316;44.118;27.258;2023-08-31T00:13:40;100196.59;;;22.22;100.00
6565;BME280;3316;44.118;27.258;2023-08-31T00:16:05;100182.00;;;22.13;100.00
6565;BME280;3316;44.118;27.258;2023-08-31T00:18:31;100222.84;;;22.31;100.00
6565;BME280;3316;44.118;27.258;2023-08-31T00:20:56;100207.53;;;22.19;100.00
6565;BME280;3316;44.118;27.258;2023-08-31T00:23:22;100205.16;;;22.14;100.00
6565;BME280;3316;44.118;27.258;2023-08-31T00:25:47;100217.28;;;22.20;100.00
6565;BME280;3316;44.118;27.258;2023-08-31T00:28:17;100219.28;;;22.31;100.00
6565;BME280;3316;44.118;27.258;2023-08-31T00:30:43;100209.72;;;22.27;100.00
6565;BME280;3316;44.118;27.258;2023-08-31T00:33:11;100216.38;;;22.34;100.00
6565;BME280;3316;44.118;27.258;2023-08-31T00:35:36;100213.78;;;22.20;100.00
6565;BME280;3316;44.118;27.258;2023-08-31T00:38:02;100218.25;;;22.19;100.00
6565;BME280;3316;44.118;27.258;2023-08-31T00:40:30;100227.91;;;22.22;100.00
6565;BME280;3316;44.118;27.258;2023-08-31T00:42:57;100197.34;;;21.97;100.00
6565;BME280;3316;44.118;27.258;2023-08-31T00:45:23;100244.19;;;22.19;100.00
6565;BME280;3316;44.118;27.258;2023-08-31T00:47:49;100244.09;;;22.20;100.00
6565;BME280;3316;44.118;27.258;2023-08-31T00:50:15;100256.72;;;22.18;100.00
6565;BME280;3316;44.118;27.258;2023-08-31T00:52:41;100264.25;;;22.26;100.00
6565;BME280;3316;44.118;27.258;2023-08-31T00:55:10;100264.47;;;22.37;100.00
6565;BME280;3316;44.118;27.258;2023-08-31T00:57:36;100281.94;;;22.56;100.00
6565;BME280;3316;44.118;27.258;2023-08-31T01:00:02;100276.50;;;22.58;100.00
6565;BME280;3316;44.118;27.258;2023-08-31T01:02:43;100296.78;;;22.62;100.00
6565;BME280;3316;44.118;27.258;2023-08-31T01:05:36;100294.22;;;22.60;100.00
6565;BME280;3316;44.118;27.258;2023-08-31T01:13:24;100299.84;;;22.70;100.00
6565;BME280;3316;44.118;27.258;2023-08-31T01:15:59;100303.06;;;22.75;100.00
6565;BME280;3316;44.118;27.258;2023-08-31T01:18:27;100303.19;;;22.73;100.00
6565;BME280;3316;44.118;27.258;2023-08-31T01:21:12;100320.91;;;22.76;100.00
6565;BME280;3316;44.118;27.258;2023-08-31T01:23:56;100315.81;;;22.71;100.00
6565;BME280;3316;44.118;27.258;2023-08-31T01:26:23;100328.84;;;22.77;100.00
6565;BME280;3316;44.118;27.258;2023-08-31T01:28:50;100289.91;;;22.58;100.00
6565;BME280;3316;44.118;27.258;2023-08-31T01:31:16;100320.69;;;22.79;100.00
6565;BME280;3316;44.118;27.258;2023-08-31T01:37:03;100322.44;;;22.80;100.00
6565;BME280;3316;44.118;27.258;2023-08-31T01:39:37;100316.31;;;22.78;100.00
6565;BME280;3316;44.118;27.258;2023-08-31T01:42:08;100327.09;;;22.76;100.00
6565;BME280;3316;44.118;27.258;2023-08-31T01:44:36;100317.75;;;22.69;100.00
6565;BME280;3316;44.118;27.258;2023-08-31T01:47:06;100319.13;;;22.62;100.00
6565;BME280;3316;44.118;27.258;2023-08-31T01:49:38;100310.09;;;22.63;100.00
6565;BME280;3316;44.118;27.258;2023-08-31T01:52:04;100316.34;;;22.64;100.00
6565;BME280;3316;44.118;27.258;2023-08-31T01:54:31;100319.97;;;22.63;100.00
6565;BME280;3316;44.118;27.258;2023-08-31T01:56:56;100316.72;;;22.58;100.00
6565;BME280;3316;44.118;27.258;2023-08-31T01:59:22;100318.44;;;22.59;100.00
6565;BME280;3316;44.118;27.258;2023-08-31T02:01:47;100279.00;;;22.47;100.00
6565;BME280;3316;44.118;27.258;2023-08-31T02:04:13;100318.03;;;22.65;100.00
6565;BME280;3316;44.118;27.258;2023-08-31T02:06:38;100318.25;;;22.62;100.00
6565;BME280;3316;44.118;27.258;2023-08-31T02:09:03;100288.97;;;22.45;100.00
6565;BME280;3316;44.118;27.258;2023-08-31T02:11:30;100306.16;;;22.55;100.00
6565;BME280;3316;44.118;27.258;2023-08-31T02:13:57;100323.63;;;22.62;100.00
6565;BME280;3316;44.118;27.258;2023-08-31T02:16:23;100320.81;;;22.63;100.00
6565;BME280;3316;44.118;27.258;2023-08-31T02:18:48;100312.69;;;22.51;100.00
6565;BME280;3316;44.118;27.258;2023-08-31T02:21:13;100311.50;;;22.55;100.00
6565;BME280;3316;44.118;27.258;2023-08-31T02:23:39;100308.09;;;22.53;100.00
6565;BME280;3316;44.118;27.258;2023-08-31T02:26:04;100314.63;;;22.49;100.00
6565;BME280;3316;44.118;27.258;2023-08-31T02:28:30;100277.00;;;22.22;100.00
6565;BME280;3316;44.118;27.258;2023-08-31T02:31:00;100307.91;;;22.42;100.00
6565;BME280;3316;44.118;27.258;2023-08-31T02:33:26;100321.31;;;22.42;100.00
6565;BME280;3316;44.118;27.258;2023-08-31T02:35:51;100311.56;;;22.27;100.00
6565;BME280;3316;44.118;27.258;2023-08-31T02:38:16;100309.66;;;22.29;100.00
6565;BME280;3316;44.118;27.258;2023-08-31T02:40:45;100320.94;;;22.34;100.00
6565;BME280;3316;44.118;27.258;2023-08-31T02:43:11;100312.81;;;22.35;100.00
6565;BME280;3316;44.118;27.258;2023-08-31T02:45:36;100318.72;;;22.40;100.00
6565;BME280;3316;44.118;27.258;2023-08-31T02:48:01;100319.59;;;22.41;100.00
6565;BME280;3316;44.118;27.258;2023-08-31T02:50:29;100313.09;;;22.31;100.00
6565;BME280;3316;44.118;27.258;2023-08-31T02:52:54;100306.59;;;22.21;100.00
6565;BME280;3316;44.118;27.258;2023-08-31T02:55:19;100312.22;;;22.30;100.00
6565;BME280;3316;44.118;27.258;2023-08-31T02:57:46;100332.41;;;22.36;100.00
6565;BME280;3316;44.118;27.258;2023-08-31T03:00:12;100326.78;;;22.26;100.00
6565;BME280;3316;44.118;27.258;2023-08-31T03:02:38;100318.75;;;22.12;100.00
6565;BME280;3316;44.118;27.258;2023-08-31T03:05:04;100304.13;;;22.03;100.00
6565;BME280;3316;44.118;27.258;2023-08-31T03:07:30;100332.34;;;22.23;100.00
6565;BME280;3316;44.118;27.258;2023-08-31T03:09:55;100341.31;;;22.22;100.00
6565;BME280;3316;44.118;27.258;2023-08-31T03:12:20;100342.19;;;22.23;100.00
6565;BME280;3316;44.118;27.258;2023-08-31T03:14:46;100340.28;;;22.25;100.00
6565;BME280;3316;44.118;27.258;2023-08-31T03:17:11;100355.22;;;22.29;100.00
6565;BME280;3316;44.118;27.258;2023-08-31T03:19:37;100352.25;;;22.33;100.00
6565;BME280;3316;44.118;27.258;2023-08-31T03:22:02;100348.81;;;22.31;100.00
6565;BME280;3316;44.118;27.258;2023-08-31T03:24:27;100345.44;;;22.28;100.00
6565;BME280;3316;44.118;27.258;2023-08-31T03:26:53;100353.41;;;22.29;100.00
6565;BME280;3316;44.118;27.258;2023-08-31T03:29:18;100360.84;;;22.24;100.00
6565;BME280;3316;44.118;27.258;2023-08-31T03:31:44;100368.25;;;22.35;100.00
6565;BME280;3316;44.118;27.258;2023-08-31T03:34:09;100361.13;;;22.34;100.00
6565;BME280;3316;44.118;27.258;2023-08-31T03:36:35;100340.00;;;22.29;100.00
6565;BME280;3316;44.118;27.258;2023-08-31T03:39:00;100372.13;;;22.43;100.00
6565;BME280;3316;44.118;27.258;2023-08-31T03:41:25;100348.31;;;22.39;100.00
6565;BME280;3316;44.118;27.258;2023-08-31T03:43:51;100355.41;;;22.40;100.00
6565;BME280;3316;44.118;27.258;2023-08-31T03:46:16;100356.25;;;22.40;100.00
6565;BME280;3316;44.118;27.258;2023-08-31T03:48:42;100359.13;;;22.37;100.00
6565;BME280;3316;44.118;27.258;2023-08-31T03:51:07;100353.31;;;22.31;100.00
6565;BME280;3316;44.118;27.258;2023-08-31T03:53:32;100358.19;;;22.38;100.00
6565;BME280;3316;44.118;27.258;2023-08-31T03:55:58;100361.63;;;22.40;100.00
6565;BME280;3316;44.118;27.258;2023-08-31T03:58:23;100348.03;;;22.29;100.00
6565;BME280;3316;44.118;27.258;2023-08-31T04:00:49;100348.81;;;22.31;100.00
6565;BME280;3316;44.118;27.258;2023-08-31T04:03:15;100359.59;;;22.44;100.00
6565;BME280;3316;44.118;27.258;2023-08-31T04:05:41;100371.59;;;22.52;100.00
6565;BME280;3316;44.118;27.258;2023-08-31T04:08:06;100365.72;;;22.46;100.00
6565;BME280;3316;44.118;27.258;2023-08-31T04:10:32;100369.97;;;22.64;100.00
6565;BME280;3316;44.118;27.258;2023-08-31T04:12:58;100385.31;;;23.02;100.00
6565;BME280;3316;44.118;27.258;2023-08-31T04:15:23;100376.69;;;23.38;100.00
6565;BME280;3316;44.118;27.258;2023-08-31T04:17:49;100360.97;;;23.71;100.00
6565;BME280;3316;44.118;27.258;2023-08-31T04:20:17;100387.16;;;24.20;100.00
6565;BME280;3316;44.118;27.258;2023-08-31T04:22:43;100389.75;;;24.34;100.00
6565;BME280;3316;44.118;27.258;2023-08-31T04:25:08;100371.91;;;24.20;100.00
6565;BME280;3316;44.118;27.258;2023-08-31T04:27:33;100396.72;;;24.24;100.00
6565;BME280;3316;44.118;27.258;2023-08-31T04:30:00;100394.47;;;24.18;100.00
6565;BME280;3316;44.118;27.258;2023-08-31T04:32:27;100397.59;;;24.12;100.00
6565;BME280;3316;44.118;27.258;2023-08-31T04:34:53;100395.00;;;24.23;100.00
6565;BME280;3316;44.118;27.258;2023-08-31T04:37:18;100402.75;;;24.40;100.00
6565;BME280;3316;44.118;27.258;2023-08-31T04:39:44;100395.00;;;24.73;100.00
6565;BME280;3316;44.118;27.258;2023-08-31T04:42:09;100401.47;;;25.43;100.00
6565;BME280;3316;44.118;27.258;2023-08-31T04:44:35;100418.31;;;26.38;100.00
6565;BME280;3316;44.118;27.258;2023-08-31T04:47:01;100410.75;;;26.87;100.00
6565;BME280;3316;44.118;27.258;2023-08-31T04:49:26;100417.16;;;27.29;100.00
6565;BME280;3316;44.118;27.258;2023-08-31T04:51:52;100420.13;;;27.69;100.00
6565;BME280;3316;44.118;27.258;2023-08-31T04:54:18;100431.75;;;27.80;100.00
6565;BME280;3316;44.118;27.258;2023-08-31T04:56:43;100424.38;;;28.03;100.00
6565;BME280;3316;44.118;27.258;2023-08-31T04:59:09;100431.03;;;28.40;100.00
6565;BME280;3316;44.118;27.258;2023-08-31T05:01:34;100430.47;;;28.57;100.00
6565;BME280;3316;44.118;27.258;2023-08-31T05:04:00;100432.75;;;28.62;100.00
6565;BME280;3316;44.118;27.258;2023-08-31T05:06:25;100427.66;;;27.97;100.00
6565;BME280;3316;44.118;27.258;2023-08-31T05:08:51;100431.28;;;27.75;100.00
6565;BME280;3316;44.118;27.258;2023-08-31T05:11:16;100441.41;;;27.62;100.00
6565;BME280;3316;44.118;27.258;2023-08-31T05:13:42;100424.09;;;27.11;100.00
6565;BME280;3316;44.118;27.258;2023-08-31T05:16:08;100456.38;;;27.01;100.00
6565;BME280;3316;44.118;27.258;2023-08-31T05:18:34;100443.97;;;26.55;100.00
6565;BME280;3316;44.118;27.258;2023-08-31T05:20:59;100458.09;;;26.23;100.00
6565;BME280;3316;44.118;27.258;2023-08-31T05:23:25;100443.13;;;25.85;100.00
6565;BME280;3316;44.118;27.258;2023-08-31T05:25:50;100457.63;;;25.60;100.00
6565;BME280;3316;44.118;27.258;2023-08-31T05:28:16;100459.84;;;25.30;100.00
6565;BME280;3316;44.118;27.258;2023-08-31T05:30:49;100465.44;;;25.03;100.00
6565;BME280;3316;44.118;27.258;2023-08-31T05:33:15;100468.41;;;24.75;100.00
6565;BME280;3316;44.118;27.258;2023-08-31T05:35:40;100468.81;;;24.82;100.00
6565;BME280;3316;44.118;27.258;2023-08-31T05:38:06;100479.44;;;24.83;100.00
6565;BME280;3316;44.118;27.258;2023-08-31T05:40:31;100480.31;;;24.71;100.00
6565;BME280;3316;44.118;27.258;2023-08-31T05:42:57;100475.59;;;24.75;100.00
6565;BME280;3316;44.118;27.258;2023-08-31T05:45:22;100474.31;;;24.80;100.00
6565;BME280;3316;44.118;27.258;2023-08-31T05:47:48;100473.13;;;24.84;100.00
6565;BME280;3316;44.118;27.258;2023-08-31T05:50:14;100490.09;;;24.97;100.00
6565;BME280;3316;44.118;27.258;2023-08-31T05:52:39;100483.31;;;25.04;100.00
6565;BME280;3316;44.118;27.258;2023-08-31T05:55:09;100484.72;;;24.97;100.00
6565;BME280;3316;44.118;27.258;2023-08-31T05:57:35;100508.84;;;24.86;100.00
6565;BME280;3316;44.118;27.258;2023-08-31T06:00:01;100441.25;;;24.40;100.00
6565;BME280;3316;44.118;27.258;2023-08-31T06:02:26;100469.09;;;24.52;100.00
6565;BME280;3316;44.118;27.258;2023-08-31T06:04:51;100501.66;;;24.74;100.00
6565;BME280;3316;44.118;27.258;2023-08-31T06:07:17;100503.28;;;24.77;100.00
6565;BME280;3316;44.118;27.258;2023-08-31T06:09:42;100509.06;;;24.83;100.00
6565;BME280;3316;44.118;27.258;2023-08-31T06:12:08;100498.09;;;24.86;100.00
6565;BME280;3316;44.118;27.258;2023-08-31T06:14:33;100504.78;;;24.81;100.00
6565;BME280;3316;44.118;27.258;2023-08-31T06:16:59;100508.00;;;24.86;100.00
6565;BME280;3316;44.118;27.258;2023-08-31T06:19:24;100520.50;;;24.87;100.00
6565;BME280;3316;44.118;27.258;2023-08-31T06:21:50;100509.50;;;24.90;100.00
6565;BME280;3316;44.118;27.258;2023-08-31T06:24:15;100524.44;;;24.81;100.00
6565;BME280;3316;44.118;27.258;2023-08-31T06:26:41;100536.53;;;24.88;100.00
6565;BME280;3316;44.118;27.258;2023-08-31T06:29:06;100537.16;;;24.79;100.00
6565;BME280;3316;44.118;27.258;2023-08-31T06:31:34;100534.22;;;24.69;100.00
6565;BME280;3316;44.118;27.258;2023-08-31T06:34:00;100525.09;;;24.59;100.00
6565;BME280;3316;44.118;27.258;2023-08-31T06:36:25;100557.38;;;24.59;100.00
6565;BME280;3316;44.118;27.258;2023-08-31T06:38:50;100559.16;;;24.46;100.00
6565;BME280;3316;44.118;27.258;2023-08-31T06:41:16;100558.47;;;24.30;100.00
6565;BME280;3316;44.118;27.258;2023-08-31T06:43:41;100560.34;;;24.30;100.00
6565;BME280;3316;44.118;27.258;2023-08-31T06:46:07;100551.91;;;24.22;100.00
6565;BME280;3316;44.118;27.258;2023-08-31T06:48:32;100577.47;;;24.54;100.00
6565;BME280;3316;44.118;27.258;2023-08-31T06:50:58;100574.69;;;24.55;100.00
6565;BME280;3316;44.118;27.258;2023-08-31T06:53:24;100581.44;;;24.48;100.00
6565;BME280;3316;44.118;27.258;2023-08-31T06:55:49;100566.81;;;24.40;100.00
6565;BME280;3316;44.118;27.258;2023-08-31T06:58:15;100582.81;;;24.29;100.00
6565;BME280;3316;44.118;27.258;2023-08-31T07:00:40;100579.16;;;24.30;100.00
6565;BME280;3316;44.118;27.258;2023-08-31T07:03:06;100577.56;;;24.40;100.00
6565;BME280;3316;44.118;27.258;2023-08-31T07:05:34;100580.72;;;24.59;100.00
6565;BME280;3316;44.118;27.258;2023-08-31T07:08:02;100583.84;;;24.65;100.00
6565;BME280;3316;44.118;27.258;2023-08-31T07:10:28;100544.91;;;24.71;100.00
6565;BME280;3316;44.118;27.258;2023-08-31T07:12:53;100580.53;;;25.12;100.00
6565;BME280;3316;44.118;27.258;2023-08-31T07:15:19;100580.63;;;25.36;100.00
6565;BME280;3316;44.118;27.258;2023-08-31T07:17:44;100586.56;;;25.77;100.00
6565;BME280;3316;44.118;27.258;2023-08-31T07:20:11;100592.63;;;26.04;100.00
6565;BME280;3316;44.118;27.258;2023-08-31T07:22:37;100588.06;;;26.17;100.00
6565;BME280;3316;44.118;27.258;2023-08-31T07:25:03;100585.63;;;26.25;100.00
6565;BME280;3316;44.118;27.258;2023-08-31T07:27:29;100581.97;;;26.26;100.00
6565;BME280;3316;44.118;27.258;2023-08-31T07:29:54;100558.88;;;26.11;100.00
6565;BME280;3316;44.118;27.258;2023-08-31T07:32:20;100584.22;;;26.32;100.00
6565;BME280;3316;44.118;27.258;2023-08-31T07:34:45;100581.84;;;26.28;100.00
6565;BME280;3316;44.118;27.258;2023-08-31T07:37:11;100599.97;;;26.50;100.00
6565;BME280;3316;44.118;27.258;2023-08-31T07:39:36;100584.41;;;26.29;100.00
6565;BME280;3316;44.118;27.258;2023-08-31T07:42:02;100593.97;;;26.22;100.00
6565;BME280;3316;44.118;27.258;2023-08-31T07:44:27;100596.66;;;26.22;100.00
6565;BME280;3316;44.118;27.258;2023-08-31T07:46:53;100579.72;;;26.44;100.00
6565;BME280;3316;44.118;27.258;2023-08-31T07:49:18;100586.88;;;26.56;100.00
6565;BME280;3316;44.118;27.258;2023-08-31T07:51:44;100592.72;;;26.74;100.00
6565;BME280;3316;44.118;27.258;2023-08-31T07:54:09;100585.09;;;26.79;100.00
6565;BME280;3316;44.118;27.258;2023-08-31T07:56:35;100558.03;;;26.57;100.00
6565;BME280;3316;44.118;27.258;2023-08-31T07:59:00;100552.16;;;26.63;100.00
6565;BME280;3316;44.118;27.258;2023-08-31T08:01:26;100582.59;;;27.10;100.00
6565;BME280;3316;44.118;27.258;2023-08-31T08:03:52;100588.03;;;27.44;100.00
6565;BME280;3316;44.118;27.258;2023-08-31T08:06:17;100598.31;;;27.39;100.00
6565;BME280;3316;44.118;27.258;2023-08-31T08:08:43;100590.91;;;26.85;100.00
6565;BME280;3316;44.118;27.258;2023-08-31T08:11:09;100593.38;;;26.65;100.00
6565;BME280;3316;44.118;27.258;2023-08-31T08:13:34;100594.94;;;26.80;100.00
6565;BME280;3316;44.118;27.258;2023-08-31T08:16:00;100598.56;;;27.24;100.00
6565;BME280;3316;44.118;27.258;2023-08-31T08:18:25;100593.41;;;27.55;100.00
6565;BME280;3316;44.118;27.258;2023-08-31T08:20:51;100600.38;;;27.68;100.00
6565;BME280;3316;44.118;27.258;2023-08-31T08:23:16;100588.31;;;28.37;100.00
6565;BME280;3316;44.118;27.258;2023-08-31T08:25:41;100599.50;;;28.85;100.00
6565;BME280;3316;44.118;27.258;2023-08-31T08:28:07;100599.50;;;28.85;100.00
6565;BME280;3316;44.118;27.258;2023-08-31T08:30:33;100608.44;;;28.76;100.00
6565;BME280;3316;44.118;27.258;2023-08-31T08:32:58;100606.47;;;29.19;100.00
6565;BME280;3316;44.118;27.258;2023-08-31T08:35:24;100620.72;;;29.51;100.00
6565;BME280;3316;44.118;27.258;2023-08-31T08:37:49;100606.78;;;29.26;100.00
6565;BME280;3316;44.118;27.258;2023-08-31T08:40:15;100605.56;;;29.39;100.00
6565;BME280;3316;44.118;27.258;2023-08-31T08:42:42;100605.00;;;29.75;100.00
6565;BME280;3316;44.118;27.258;2023-08-31T08:45:13;100586.41;;;29.71;100.00
6565;BME280;3316;44.118;27.258;2023-08-31T08:47:44;100591.75;;;29.82;100.00
6565;BME280;3316;44.118;27.258;2023-08-31T08:50:11;100622.47;;;29.92;100.00
6565;BME280;3316;44.118;27.258;2023-08-31T08:52:38;100623.31;;;30.02;100.00
6565;BME280;3316;44.118;27.258;2023-08-31T08:55:05;100629.56;;;30.71;100.00
6565;BME280;3316;44.118;27.258;2023-08-31T08:57:31;100627.50;;;31.21;100.00
6565;BME280;3316;44.118;27.258;2023-08-31T08:59:59;100632.25;;;31.00;100.00
6565;BME280;3316;44.118;27.258;2023-08-31T09:02:25;100623.91;;;31.20;100.00
6565;BME280;3316;44.118;27.258;2023-08-31T09:04:50;100623.09;;;31.01;100.00
6565;BME280;3316;44.118;27.258;2023-08-31T09:07:23;100636.81;;;31.09;100.00
6565;BME280;3316;44.118;27.258;2023-08-31T09:09:53;100600.94;;;30.96;100.00
6565;BME280;3316;44.118;27.258;2023-08-31T09:12:22;100624.03;;;31.38;100.00
6565;BME280;3316;44.118;27.258;2023-08-31T09:14:59;100627.31;;;31.41;100.00
6565;BME280;3316;44.118;27.258;2023-08-31T09:17:25;100631.19;;;31.39;100.00
6565;BME280;3316;44.118;27.258;2023-08-31T09:20:00;100630.69;;;31.53;100.00
6565;BME280;3316;44.118;27.258;2023-08-31T09:22:26;100645.81;;;31.65;100.00
6565;BME280;3316;44.118;27.258;2023-08-31T09:24:51;100643.38;;;31.89;100.00
6565;BME280;3316;44.118;27.258;2023-08-31T09:27:19;100647.31;;;32.14;100.00
6565;BME280;3316;44.118;27.258;2023-08-31T09:29:46;100642.41;;;32.35;100.00
6565;BME280;3316;44.118;27.258;2023-08-31T09:32:21;100647.38;;;32.49;100.00
6565;BME280;3316;44.118;27.258;2023-08-31T09:34:47;100636.38;;;32.76;100.00
6565;BME280;3316;44.118;27.258;2023-08-31T09:37:15;100602.50;;;32.79;100.00
6565;BME280;3316;44.118;27.258;2023-08-31T09:39:41;100633.44;;;32.95;100.00
6565;BME280;3316;44.118;27.258;2023-08-31T09:42:07;100644.16;;;32.54;100.00
6565;BME280;3316;44.118;27.258;2023-08-31T09:44:32;100635.66;;;32.39;100.00
6565;BME280;3316;44.118;27.258;2023-08-31T09:46:58;100647.69;;;32.36;100.00
6565;BME280;3316;44.118;27.258;2023-08-31T09:49:24;100643.00;;;32.56;100.00
6565;BME280;3316;44.118;27.258;2023-08-31T09:51:50;100644.81;;;32.65;100.00
6565;BME280;3316;44.118;27.258;2023-08-31T09:54:20;100628.91;;;32.61;100.00
6565;BME280;3316;44.118;27.258;2023-08-31T09:56:48;100644.41;;;32.60;100.00
6565;BME280;3316;44.118;27.258;2023-08-31T09:59:15;100641.75;;;32.68;100.00
6565;BME280;3316;44.118;27.258;2023-08-31T10:01:42;100652.88;;;32.75;100.00
6565;BME280;3316;44.118;27.258;2023-08-31T10:04:08;100650.06;;;32.84;100.00
6565;BME280;3316;44.118;27.258;2023-08-31T10:06:35;100650.47;;;32.72;100.00
6565;BME280;3316;44.118;27.258;2023-08-31T10:09:04;100644.16;;;32.54;100.00
6565;BME280;3316;44.118;27.258;2023-08-31T10:11:30;100641.13;;;32.57;100.00
6565;BME280;3316;44.118;27.258;2023-08-31T10:13:57;100660.81;;;32.68;100.00
6565;BME280;3316;44.118;27.258;2023-08-31T10:16:25;100653.69;;;32.50;100.00
6565;BME280;3316;44.118;27.258;2023-08-31T10:18:51;100648.44;;;32.56;100.00
6565;BME280;3316;44.118;27.258;2023-08-31T10:21:18;100657.03;;;32.61;100.00
6565;BME280;3316;44.118;27.258;2023-08-31T10:23:47;100655.00;;;32.36;100.00
6565;BME280;3316;44.118;27.258;2023-08-31T10:26:31;100615.25;;;32.08;100.00
6565;BME280;3316;44.118;27.258;2023-08-31T10:28:58;100651.72;;;32.60;100.00
6565;BME280;3316;44.118;27.258;2023-08-31T10:31:27;100650.13;;;32.39;100.00
6565;BME280;3316;44.118;27.258;2023-08-31T10:34:04;100654.56;;;31.96;100.00
6565;BME280;3316;44.118;27.258;2023-08-31T10:36:40;100659.19;;;32.13;100.00
6565;BME280;3316;44.118;27.258;2023-08-31T10:39:14;100645.13;;;31.90;100.00
6565;BME280;3316;44.118;27.258;2023-08-31T10:41:41;100644.03;;;31.74;100.00
6565;BME280;3316;44.118;27.258;2023-08-31T10:46:46;100656.88;;;31.91;100.00
6565;BME280;3316;44.118;27.258;2023-08-31T10:51:38;100650.47;;;31.82;100.00
6565;BME280;3316;44.118;27.258;2023-08-31T10:57:23;100642.19;;;31.74;100.00
6565;BME280;3316;44.118;27.258;2023-08-31T10:59:50;100642.03;;;32.12;100.00
6565;BME280;3316;44.118;27.258;2023-08-31T11:02:41;100651.34;;;32.10;100.00
6565;BME280;3316;44.118;27.258;2023-08-31T11:05:14;100656.66;;;32.29;100.00
6565;BME280;3316;44.118;27.258;2023-08-31T11:07:41;100642.16;;;32.11;100.00
6565;BME280;3316;44.118;27.258;2023-08-31T11:10:08;100634.22;;;31.90;100.00
6565;BME280;3316;44.118;27.258;2023-08-31T11:12:38;100638.38;;;31.67;100.00
6565;BME280;3316;44.118;27.258;2023-08-31T11:15:04;100632.31;;;31.73;100.00
6565;BME280;3316;44.118;27.258;2023-08-31T11:17:30;100629.28;;;31.49;100.00
6565;BME280;3316;44.118;27.258;2023-08-31T11:19:57;100623.84;;;31.49;100.00
6565;BME280;3316;44.118;27.258;2023-08-31T11:22:23;100609.75;;;31.63;100.00
6565;BME280;3316;44.118;27.258;2023-08-31T11:24:49;100621.38;;;31.83;100.00
6565;BME280;3316;44.118;27.258;2023-08-31T11:27:14;100609.31;;;31.95;100.00
6565;BME280;3316;44.118;27.258;2023-08-31T11:29:44;100602.56;;;31.89;100.00
6565;BME280;3316;44.118;27.258;2023-08-31T11:32:10;100608.94;;;32.07;100.00
6565;BME280;3316;44.118;27.258;2023-08-31T11:34:40;100589.59;;;32.10;100.00
6565;BME280;3316;44.118;27.258;2023-08-31T11:37:07;100598.31;;;32.14;100.00
6565;BME280;3316;44.118;27.258;2023-08-31T11:39:33;100605.94;;;32.10;100.00
6565;BME280;3316;44.118;27.258;2023-08-31T11:41:58;100609.97;;;32.24;100.00
6565;BME280;3316;44.118;27.258;2023-08-31T11:44:24;100613.63;;;32.32;100.00
6565;BME280;3316;44.118;27.258;2023-08-31T11:46:50;100579.31;;;32.04;100.00
6565;BME280;3316;44.118;27.258;2023-08-31T11:49:19;100613.25;;;32.27;100.00
6565;BME280;3316;44.118;27.258;2023-08-31T11:51:46;100607.72;;;32.37;100.00
6565;BME280;3316;44.118;27.258;2023-08-31T11:54:12;100591.22;;;32.21;100.00
6565;BME280;3316;44.118;27.258;2023-08-31T11:56:42;100617.63;;;31.93;100.00
6565;BME280;3316;44.118;27.258;2023-08-31T11:59:11;100610.00;;;31.70;100.00
6565;BME280;3316;44.118;27.258;2023-08-31T12:01:38;100617.50;;;31.58;100.00
6565;BME280;3316;44.118;27.258;2023-08-31T12:04:12;100606.09;;;31.45;100.00
6565;BME280;3316;44.118;27.258;2023-08-31T12:06:39;100613.47;;;31.62;100.00
6565;BME280;3316;44.118;27.258;2023-08-31T12:09:06;100596.47;;;31.78;100.00
6565;BME280;3316;44.118;27.258;2023-08-31T12:11:32;100597.34;;;31.78;100.00
6565;BME280;3316;44.118;27.258;2023-08-31T12:14:01;100604.09;;;31.74;100.00
6565;BME280;3316;44.118;27.258;2023-08-31T12:16:33;100600.72;;;31.63;99.60
6565;BME280;3316;44.118;27.258;2023-08-31T12:19:04;100603.00;;;31.40;100.00
6565;BME280;3316;44.118;27.258;2023-08-31T12:21:31;100591.84;;;31.24;100.00
6565;BME280;3316;44.118;27.258;2023-08-31T12:23:59;100591.19;;;31.12;100.00
6565;BME280;3316;44.118;27.258;2023-08-31T12:26:26;100599.59;;;31.19;100.00
6565;BME280;3316;44.118;27.258;2023-08-31T12:28:51;100603.06;;;31.02;100.00
6565;BME280;3316;44.118;27.258;2023-08-31T12:31:17;100593.34;;;30.80;100.00
6565;BME280;3316;44.118;27.258;2023-08-31T12:33:42;100600.13;;;30.86;100.00
6565;BME280;3316;44.118;27.258;2023-08-31T12:36:08;100592.22;;;30.83;100.00
6565;BME280;3316;44.118;27.258;2023-08-31T12:38:34;100592.78;;;30.96;100.00
6565;BME280;3316;44.118;27.258;2023-08-31T12:40:59;100577.31;;;31.06;99.50
6565;BME280;3316;44.118;27.258;2023-08-31T12:43:27;100595.09;;;31.37;98.03
6565;BME280;3316;44.118;27.258;2023-08-31T12:45:53;100589.19;;;31.51;96.85
6565;BME280;3316;44.118;27.258;2023-08-31T12:48:18;100592.72;;;31.61;96.85
6565;BME280;3316;44.118;27.258;2023-08-31T12:50:44;100599.13;;;31.87;95.25
6565;BME280;3316;44.118;27.258;2023-08-31T12:53:09;100558.44;;;31.95;93.84
6565;BME280;3316;44.118;27.258;2023-08-31T12:55:35;100597.34;;;32.23;90.84
6565;BME280;3316;44.118;27.258;2023-08-31T12:58:00;100569.50;;;31.94;90.26
6565;BME280;3316;44.118;27.258;2023-08-31T13:00:26;100598.06;;;32.07;90.49
6565;BME280;3316;44.118;27.258;2023-08-31T13:02:52;100592.59;;;32.07;89.78
6565;BME280;3316;44.118;27.258;2023-08-31T13:05:18;100592.16;;;32.29;89.06